LFPO 191300Z 05006KT 290V080 CAVOK 24/07 Q1024 NOSIG

ElémentsDécodage
LFPO Station météo située sur l'aérodrome de PARIS Orly
191300Z émis le 19 du mois à 13h00 UTC
05006KT vent du 050°, 06 noeuds
290V080 vent de direction variable entre 290° et 080°
CAVOK Ceiling And Visibility OK
- Visibilité de 10 Km ou plus
- Pas de nuage au-dessous de 1500m ou au-dessous de l'altitude minimale du secteur la plus élevée (si>1500m) et absence de CB
- pas de temps présent significatif
24/07 température 24°C, point de rosée 07°C
 soit une humidité relative de 34%
Q1024 la pression au niveau de la mer (QNH) est de 1024 hPa
NOSIG Pas de changement significatif prévu au cours des deux heures suivant l'heure de l'observation